createdAt,value
2023-04-18T00:01:40.798Z,100124.16
2023-04-18T00:04:47.025Z,100128.53
2023-04-18T00:07:49.997Z,100126.91
2023-04-18T00:10:54.268Z,100127.75
2023-04-18T00:14:00.268Z,100130.09
2023-04-18T00:20:10.722Z,100131.69
2023-04-18T00:23:16.868Z,100132.94
2023-04-18T00:26:19.932Z,100126.94
2023-04-18T00:29:23.393Z,100130.09
2023-04-18T00:32:28.645Z,100124.47
2023-04-18T00:35:33.735Z,100132.41
2023-04-18T00:38:36.733Z,100126.06
2023-04-18T00:41:39.973Z,100131.16
2023-04-18T00:44:42.621Z,100135.53
2023-04-18T00:47:45.567Z,100125.94
2023-04-18T00:50:48.183Z,100133.91
2023-04-18T00:53:51.590Z,100130.66
2023-04-18T00:56:54.310Z,100133.75
2023-04-18T00:59:57.547Z,100137.25
2023-04-18T01:03:01.143Z,100132.75
2023-04-18T01:06:04.835Z,100132.72
2023-04-18T01:09:08.930Z,100131.06
2023-04-18T01:12:12.022Z,100133.38
2023-04-18T01:15:14.763Z,100128.25
2023-04-18T01:18:18.156Z,100137.28
2023-04-18T01:21:22.033Z,100134.97
2023-04-18T01:24:27.081Z,100140.19
2023-04-18T01:27:30.720Z,100140.56
2023-04-18T01:30:36.306Z,100136.25
2023-04-18T01:33:38.844Z,100143.88
2023-04-18T01:36:41.960Z,100138.38
2023-04-18T01:39:46.240Z,100153.56
2023-04-18T01:42:49.490Z,100148.78
2023-04-18T01:45:52.048Z,100148.38
2023-04-18T01:48:55.767Z,100145.16
2023-04-18T01:51:58.352Z,100143.94
2023-04-18T01:55:04.313Z,100141.22
2023-04-18T01:58:07.044Z,100140.75
2023-04-18T02:01:11.489Z,100159.50
2023-04-18T02:04:14.879Z,100145.94
2023-04-18T02:07:17.915Z,100144.00
2023-04-18T02:10:21.533Z,100148.69
2023-04-18T02:13:24.701Z,100149.03
2023-04-18T02:16:27.820Z,100152.56
2023-04-18T02:19:31.069Z,100156.50
2023-04-18T02:22:33.774Z,100173.06
2023-04-18T02:25:36.923Z,100161.03
2023-04-18T02:28:39.933Z,100158.53
2023-04-18T02:31:43.213Z,100157.72
2023-04-18T02:34:45.923Z,100152.06
2023-04-18T02:37:50.870Z,100157.62
2023-04-18T02:40:53.627Z,100156.03
2023-04-18T02:43:56.914Z,100157.31
2023-04-18T02:47:00.533Z,100168.63
2023-04-18T02:50:04.399Z,100169.44
2023-04-18T02:53:07.781Z,100166.22
2023-04-18T02:56:17.224Z,100156.63
2023-04-18T02:59:22.153Z,100162.22
2023-04-18T03:02:27.735Z,100171.81
2023-04-18T03:05:31.106Z,100165.69
2023-04-18T03:08:34.781Z,100172.72
2023-04-18T03:11:37.518Z,100166.22
2023-04-18T03:14:41.136Z,100172.59
2023-04-18T03:17:44.242Z,100171.53
2023-04-18T03:20:48.369Z,100171.19
2023-04-18T03:23:53.317Z,100172.06
2023-04-18T03:26:59.922Z,100172.94
2023-04-18T03:30:03.857Z,100172.47
2023-04-18T03:33:07.507Z,100178.59
2023-04-18T03:36:12.152Z,100174.62
2023-04-18T03:39:15.388Z,100177.00
2023-04-18T03:42:18.576Z,100162.78
2023-04-18T03:45:21.490Z,100169.25
2023-04-18T03:48:24.340Z,100173.88
2023-04-18T03:51:27.912Z,100169.91
2023-04-18T03:54:30.512Z,100173.94
2023-04-18T03:57:33.647Z,100168.31
2023-04-18T04:00:37.398Z,100185.84
2023-04-18T04:03:41.024Z,100180.31
2023-04-18T04:06:44.043Z,100178.66
2023-04-18T04:09:47.058Z,100185.06
2023-04-18T04:12:49.962Z,100185.78
2023-04-18T04:15:53.789Z,100193.72
2023-04-18T04:18:56.698Z,100191.28
2023-04-18T04:22:00.279Z,100195.63
2023-04-18T04:25:04.032Z,100193.97
2023-04-18T04:28:08.349Z,100191.94
2023-04-18T04:31:12.724Z,100198.69
2023-04-18T04:34:17.021Z,100197.44
2023-04-18T04:37:21.648Z,100203.75
2023-04-18T04:40:26.668Z,100202.50
2023-04-18T04:43:30.325Z,100205.22
2023-04-18T04:46:34.158Z,100207.59
2023-04-18T04:49:37.547Z,100214.66
2023-04-18T04:52:40.435Z,100223.37
2023-04-18T04:55:43.178Z,100217.75
2023-04-18T04:58:47.349Z,100224.75
2023-04-18T05:01:53.400Z,100227.06
2023-04-18T05:05:06.176Z,100229.38
2023-04-18T05:08:08.921Z,100233.69
2023-04-18T05:11:11.978Z,100231.31
2023-04-18T05:14:14.942Z,100232.53
2023-04-18T05:17:18.046Z,100234.50
2023-04-18T05:20:20.742Z,100240.75
2023-04-18T05:23:23.836Z,100241.25
2023-04-18T05:26:26.525Z,100244.44
2023-04-18T05:29:29.325Z,100247.25
2023-04-18T05:32:31.918Z,100244.47
2023-04-18T05:35:34.932Z,100253.66
2023-04-18T05:38:37.563Z,100253.63
2023-04-18T05:41:40.635Z,100259.62
2023-04-18T05:44:43.294Z,100258.06
2023-04-18T05:47:46.226Z,100266.03
2023-04-18T05:50:48.825Z,100267.87
2023-04-18T05:53:51.840Z,100265.41
2023-04-18T05:56:55.005Z,100262.56
2023-04-18T05:59:57.892Z,100265.69
2023-04-18T06:03:00.720Z,100272.09
2023-04-18T06:06:03.948Z,100269.34
2023-04-18T06:09:06.823Z,100271.69
2023-04-18T06:12:10.158Z,100261.69
2023-04-18T06:15:12.798Z,100275.56
2023-04-18T06:18:15.705Z,100272.06
2023-04-18T06:21:18.546Z,100272.91
2023-04-18T06:24:21.444Z,100284.81
2023-04-18T06:27:31.008Z,100280.13
2023-04-18T06:30:34.850Z,100287.25
2023-04-18T06:33:37.925Z,100283.16
2023-04-18T06:36:41.222Z,100293.63
2023-04-18T06:39:43.816Z,100293.63
2023-04-18T06:42:46.924Z,100298.31
2023-04-18T06:45:49.521Z,100292.75
2023-04-18T06:48:52.566Z,100299.06
2023-04-18T06:51:55.121Z,100297.41
2023-04-18T06:54:57.994Z,100299.00
2023-04-18T06:58:00.850Z,100302.16
2023-04-18T07:01:03.854Z,100314.44
2023-04-18T07:04:06.697Z,100308.47
2023-04-18T07:07:09.859Z,100316.78
2023-04-18T07:10:12.975Z,100307.66
2023-04-18T07:13:16.140Z,100318.44
2023-04-18T07:16:18.952Z,100318.16
2023-04-18T07:19:21.907Z,100317.88
2023-04-18T07:22:24.508Z,100320.19
2023-04-18T07:25:27.463Z,100324.25
2023-04-18T07:28:32.311Z,100314.91
2023-04-18T07:31:35.633Z,100319.03
2023-04-18T07:34:40.490Z,100329.00
2023-04-18T07:37:43.438Z,100335.87
2023-04-18T07:40:46.168Z,100336.34
2023-04-18T07:43:49.020Z,100330.84
2023-04-18T07:46:52.415Z,100333.72
2023-04-18T07:49:55.474Z,100335.41
2023-04-18T07:52:58.062Z,100343.06
2023-04-18T07:56:00.964Z,100337.06
2023-04-18T07:59:03.612Z,100341.94
2023-04-18T08:02:06.732Z,100343.19
2023-04-18T08:05:10.458Z,100343.75
2023-04-18T08:08:13.518Z,100339.94
2023-04-18T08:11:16.687Z,100349.25
2023-04-18T08:14:19.332Z,100344.09
2023-04-18T08:17:23.465Z,100346.56
2023-04-18T08:20:26.115Z,100345.78
2023-04-18T08:23:29.117Z,100353.50
2023-04-18T08:26:31.641Z,100354.78
2023-04-18T08:29:34.681Z,100347.66
2023-04-18T08:32:37.584Z,100350.06
2023-04-18T08:35:41.067Z,100364.53
2023-04-18T08:38:43.742Z,100358.16
2023-04-18T08:41:53.805Z,100363.69
2023-04-18T08:44:59.607Z,100359.78
2023-04-18T08:48:03.913Z,100368.97
2023-04-18T08:51:07.235Z,100374.50
2023-04-18T08:54:10.637Z,100368.59
2023-04-18T08:57:16.893Z,100378.25
2023-04-18T09:00:20.572Z,100364.72
2023-04-18T09:03:40.239Z,100371.50
2023-04-18T09:06:53.178Z,100370.69
2023-04-18T09:09:57.478Z,100366.72
2023-04-18T09:13:03.746Z,100369.19
2023-04-18T09:16:07.380Z,100370.62
2023-04-18T09:19:18.290Z,100360.91
2023-04-18T09:22:22.116Z,100362.44
2023-04-18T09:25:36.079Z,100366.06
2023-04-18T09:28:41.070Z,100366.47
2023-04-18T09:32:01.601Z,100357.91
2023-04-18T09:35:05.661Z,100361.84
2023-04-18T09:38:09.118Z,100360.47
2023-04-18T09:41:13.121Z,100351.84
2023-04-18T09:44:17.790Z,100355.00
2023-04-18T09:47:20.664Z,100358.22
2023-04-18T09:50:23.726Z,100353.53
2023-04-18T09:53:28.555Z,100342.47
2023-04-18T09:56:32.994Z,100343.19
2023-04-18T09:59:57.804Z,100337.41
2023-04-18T10:03:08.367Z,100324.19
2023-04-18T10:06:12.162Z,100328.81
2023-04-18T10:09:16.190Z,100332.19
2023-04-18T10:12:20.622Z,100329.41
2023-04-18T10:15:26.477Z,100341.22
2023-04-18T10:18:29.374Z,100323.69
2023-04-18T10:21:32.227Z,100338.41
2023-04-18T10:24:50.280Z,100347.34
2023-04-18T10:27:59.737Z,100340.72
2023-04-18T10:31:04.373Z,100341.47
2023-04-18T10:34:07.669Z,100346.31
2023-04-18T10:37:12.997Z,100341.69
2023-04-18T10:40:16.026Z,100342.94
2023-04-18T10:43:19.099Z,100341.44
2023-04-18T10:46:31.580Z,100339.28
2023-04-18T10:49:38.594Z,100334.88
2023-04-18T10:52:41.938Z,100323.62
2023-04-18T10:55:54.792Z,100318.13
2023-04-18T10:59:02.141Z,100318.56
2023-04-18T11:02:11.085Z,100321.13
2023-04-18T11:05:20.017Z,100322.22
2023-04-18T11:08:24.052Z,100316.91
2023-04-18T11:11:26.764Z,100331.91
2023-04-18T11:14:49.650Z,100314.56
2023-04-18T11:18:01.920Z,100319.34
2023-04-18T11:21:05.745Z,100324.34
2023-04-18T11:24:08.512Z,100318.37
2023-04-18T11:27:12.817Z,100321.00
2023-04-18T11:30:16.342Z,100319.06
2023-04-18T11:33:19.200Z,100318.66
2023-04-18T11:36:22.317Z,100319.44
2023-04-18T11:39:25.726Z,100313.50
2023-04-18T11:42:28.963Z,100322.56
2023-04-18T11:45:32.129Z,100319.47
2023-04-18T11:48:36.668Z,100326.13
2023-04-18T11:51:39.734Z,100316.34
2023-04-18T11:54:44.628Z,100321.87
2023-04-18T11:57:54.810Z,100314.22
2023-04-18T12:00:57.473Z,100306.66
2023-04-18T12:04:05.972Z,100300.53
2023-04-18T12:07:09.468Z,100303.62
2023-04-18T12:10:21.914Z,100301.87
2023-04-18T12:13:32.982Z,100287.38
2023-04-18T12:16:36.046Z,100291.84
2023-04-18T12:19:38.702Z,100286.41
2023-04-18T12:22:47.487Z,100288.41
2023-04-18T12:25:59.762Z,100288.97
2023-04-18T12:29:02.600Z,100279.59
2023-04-18T12:32:05.491Z,100283.75
2023-04-18T12:35:09.022Z,100281.50
2023-04-18T12:38:11.910Z,100282.94
2023-04-18T12:41:14.764Z,100289.97
2023-04-18T12:44:17.838Z,100287.59
2023-04-18T12:47:21.709Z,100287.91
2023-04-18T12:50:26.499Z,100275.06
2023-04-18T12:53:29.476Z,100267.13
2023-04-18T12:56:32.285Z,100271.41
2023-04-18T12:59:35.187Z,100271.31
2023-04-18T13:02:39.572Z,100267.37
2023-04-18T13:05:42.676Z,100270.97
2023-04-18T13:08:47.554Z,100270.03
2023-04-18T13:11:51.283Z,100263.91
2023-04-18T13:14:54.208Z,100273.09
2023-04-18T13:17:57.295Z,100280.34
2023-04-18T13:21:00.093Z,100290.69
2023-04-18T13:24:02.986Z,100289.34
2023-04-18T13:27:10.588Z,100296.19
2023-04-18T13:30:13.608Z,100299.06
2023-04-18T13:33:17.171Z,100303.25
2023-04-18T13:36:20.151Z,100303.41
2023-04-18T13:39:24.916Z,100309.72
2023-04-18T13:42:27.955Z,100300.47
2023-04-18T13:45:30.640Z,100303.53
2023-04-18T13:48:33.690Z,100305.22
2023-04-18T13:51:36.351Z,100305.56
2023-04-18T13:54:39.298Z,100304.09
2023-04-18T13:57:41.979Z,100321.34
2023-04-18T14:00:44.976Z,100299.09
2023-04-18T14:03:48.333Z,100305.59
2023-04-18T14:06:51.602Z,100307.69
2023-04-18T14:09:54.795Z,100315.22
2023-04-18T14:12:57.614Z,100316.44
2023-04-18T14:16:01.206Z,100311.22
2023-04-18T14:19:03.816Z,100317.59
2023-04-18T14:22:07.979Z,100307.66
2023-04-18T14:25:10.605Z,100314.44
2023-04-18T14:28:13.521Z,100306.44
2023-04-18T14:31:16.693Z,100313.22
2023-04-18T14:34:19.825Z,100308.03
2023-04-18T14:37:22.542Z,100307.25
2023-04-18T14:40:25.429Z,100301.66
2023-04-18T14:43:28.085Z,100297.28
2023-04-18T14:46:31.067Z,100298.50
2023-04-18T14:49:34.197Z,100303.25
2023-04-18T14:52:37.028Z,100290.12
2023-04-18T14:55:39.625Z,100301.31
2023-04-18T14:58:44.033Z,100292.09
2023-04-18T15:01:46.657Z,100298.50
2023-04-18T15:04:50.095Z,100300.88
2023-04-18T15:07:53.020Z,100299.69
2023-04-18T15:10:56.248Z,100294.87
2023-04-18T15:13:58.915Z,100298.09
2023-04-18T15:17:03.138Z,100297.69
2023-04-18T15:20:09.722Z,100296.09
2023-04-18T15:23:14.292Z,100298.06
2023-04-18T15:26:17.172Z,100308.75
2023-04-18T15:29:20.123Z,100310.34
2023-04-18T15:32:23.432Z,100316.28
2023-04-18T15:35:26.536Z,100319.00
2023-04-18T15:38:31.530Z,100318.97
2023-04-18T15:41:37.072Z,100322.13
2023-04-18T15:44:39.747Z,100321.31
2023-04-18T15:47:42.808Z,100330.00
2023-04-18T15:50:52.252Z,100329.66
2023-04-18T15:53:56.378Z,100335.72
2023-04-18T15:56:58.912Z,100330.53
2023-04-18T16:00:01.984Z,100333.34
2023-04-18T16:03:05.003Z,100338.50
2023-04-18T16:06:10.142Z,100337.31
2023-04-18T16:09:12.804Z,100330.53
2023-04-18T16:12:16.446Z,100323.00
2023-04-18T16:15:19.315Z,100321.06
2023-04-18T16:18:22.283Z,100325.44
2023-04-18T16:21:24.941Z,100327.91
2023-04-18T16:24:30.322Z,100321.06
2023-04-18T16:27:33.601Z,100323.41
2023-04-18T16:30:37.659Z,100329.31
2023-04-18T16:33:40.424Z,100330.16
2023-04-18T16:36:43.409Z,100330.53
2023-04-18T16:39:46.165Z,100324.97
2023-04-18T16:42:49.124Z,100325.75
2023-04-18T16:45:51.994Z,100322.97
2023-04-18T16:48:54.861Z,100317.31
2023-04-18T16:51:57.482Z,100318.13
2023-04-18T16:55:00.532Z,100312.50
2023-04-18T16:58:03.156Z,100333.59
2023-04-18T17:01:08.994Z,100385.00
2023-04-18T17:04:11.752Z,100394.50
2023-04-18T17:07:14.717Z,100392.03
2023-04-18T17:10:20.802Z,100410.16
2023-04-18T17:13:27.132Z,100414.22
2023-04-18T17:16:31.164Z,100418.00
2023-04-18T17:19:35.134Z,100439.25
2023-04-18T17:22:38.434Z,100437.53
2023-04-18T17:25:42.190Z,100434.16
2023-04-18T17:28:44.864Z,100413.78
2023-04-18T17:31:48.341Z,100396.25
2023-04-18T17:34:51.486Z,100374.66
2023-04-18T17:37:54.463Z,100347.84
2023-04-18T17:41:01.762Z,100348.59
2023-04-18T17:44:08.624Z,100376.16
2023-04-18T17:47:12.408Z,100380.50
2023-04-18T17:50:17.715Z,100369.53
2023-04-18T17:53:20.968Z,100359.81
2023-04-18T17:56:24.931Z,100371.81
2023-04-18T17:59:28.833Z,100383.53
2023-04-18T18:02:32.424Z,100369.41
2023-04-18T18:05:35.843Z,100372.94
2023-04-18T18:08:39.844Z,100376.72
2023-04-18T18:11:43.805Z,100399.16
2023-04-18T18:14:48.028Z,100402.13
2023-04-18T18:17:52.466Z,100420.31
2023-04-18T18:20:58.045Z,100406.41
2023-04-18T18:24:01.610Z,100404.59
2023-04-18T18:27:05.291Z,100408.62
2023-04-18T18:30:10.055Z,100412.44
2023-04-18T18:33:13.537Z,100420.06
2023-04-18T18:36:18.034Z,100424.41
2023-04-18T18:39:21.596Z,100427.44
2023-04-18T18:42:26.463Z,100428.09
2023-04-18T18:45:30.918Z,100437.66
2023-04-18T18:48:37.619Z,100436.13
2023-04-18T18:51:41.458Z,100434.53
2023-04-18T18:54:45.380Z,100429.25
2023-04-18T18:57:49.004Z,100431.75
2023-04-18T19:00:56.379Z,100430.56
2023-04-18T19:03:59.816Z,100438.53
2023-04-18T19:07:04.997Z,100441.88
2023-04-18T19:10:10.028Z,100435.78
2023-04-18T19:13:15.073Z,100434.53
2023-04-18T19:16:19.417Z,100439.81
2023-04-18T19:19:24.163Z,100442.22
2023-04-18T19:22:28.411Z,100448.66
2023-04-18T19:25:32.358Z,100446.00
2023-04-18T19:28:37.318Z,100449.75
2023-04-18T19:31:43.247Z,100451.63
2023-04-18T19:34:47.026Z,100456.44
2023-04-18T19:37:51.048Z,100461.97
2023-04-18T19:40:54.200Z,100465.59
2023-04-18T19:44:00.720Z,100474.78
2023-04-18T19:47:04.559Z,100473.19
2023-04-18T19:50:11.095Z,100474.66
2023-04-18T19:53:17.511Z,100487.87
2023-04-18T19:56:21.269Z,100485.91
2023-04-18T19:59:24.416Z,100494.81
2023-04-18T20:02:30.732Z,100485.78
2023-04-18T20:05:34.417Z,100481.75
2023-04-18T20:08:42.248Z,100484.63
2023-04-18T20:11:46.706Z,100483.97
2023-04-18T20:14:50.798Z,100494.75
2023-04-18T20:17:54.221Z,100496.62
2023-04-18T20:20:57.319Z,100492.41
2023-04-18T20:24:00.867Z,100496.00
2023-04-18T20:27:04.974Z,100501.59
2023-04-18T20:30:09.316Z,100504.06
2023-04-18T20:33:13.197Z,100500.91
2023-04-18T20:36:18.778Z,100498.03
2023-04-18T20:39:22.023Z,100501.78
2023-04-18T20:42:25.461Z,100499.00
2023-04-18T20:45:28.349Z,100500.66
2023-04-18T20:48:32.052Z,100511.94
2023-04-18T20:51:37.104Z,100503.81
2023-04-18T20:54:41.694Z,100504.69
2023-04-18T20:57:44.646Z,100504.75
2023-04-18T21:00:48.850Z,100507.81
2023-04-18T21:03:52.776Z,100511.09
2023-04-18T21:06:56.311Z,100513.56
2023-04-18T21:09:59.049Z,100505.50
2023-04-18T21:13:02.055Z,100496.16
2023-04-18T21:16:07.929Z,100497.22
2023-04-18T21:19:11.248Z,100486.53
2023-04-18T21:22:17.511Z,100495.34
2023-04-18T21:25:21.443Z,100488.63
2023-04-18T21:28:24.210Z,100487.34
2023-04-18T21:31:30.738Z,100484.19
2023-04-18T21:34:33.303Z,100489.97
2023-04-18T21:37:36.198Z,100489.59
2023-04-18T21:40:38.839Z,100488.19
2023-04-18T21:43:42.098Z,100490.97
2023-04-18T21:46:45.365Z,100490.56
2023-04-18T21:49:49.489Z,100491.41
2023-04-18T21:52:52.414Z,100493.00
2023-04-18T21:55:55.404Z,100487.84
2023-04-18T21:58:58.051Z,100478.78
2023-04-18T22:02:01.086Z,100482.47
2023-04-18T22:05:04.235Z,100479.16
2023-04-18T22:08:07.527Z,100472.97
2023-04-18T22:11:11.920Z,100462.53
2023-04-18T22:14:15.113Z,100467.28
2023-04-18T22:17:18.331Z,100461.88
2023-04-18T22:20:21.756Z,100461.59
2023-04-18T22:23:26.215Z,100466.47
2023-04-18T22:26:29.260Z,100462.25
2023-04-18T22:29:32.165Z,100468.72
2023-04-18T22:32:34.799Z,100475.31
2023-04-18T22:35:38.132Z,100465.47
2023-04-18T22:38:40.893Z,100465.97
2023-04-18T22:41:43.961Z,100462.50
2023-04-18T22:44:46.684Z,100454.25
2023-04-18T22:47:49.883Z,100451.16
2023-04-18T22:50:53.012Z,100456.12
2023-04-18T22:53:56.740Z,100456.75
2023-04-18T22:56:59.898Z,100456.06
2023-04-18T23:00:04.925Z,100448.84
2023-04-18T23:03:08.150Z,100444.34
2023-04-18T23:06:11.410Z,100440.66
2023-04-18T23:09:16.752Z,100440.97
2023-04-18T23:12:20.199Z,100450.81
2023-04-18T23:15:23.050Z,100443.59
2023-04-18T23:18:29.202Z,100439.41
2023-04-18T23:21:32.704Z,100444.37
2023-04-18T23:24:35.673Z,100438.22
2023-04-18T23:27:38.952Z,100442.09
2023-04-18T23:30:41.929Z,100434.91
2023-04-18T23:33:45.581Z,100442.69
2023-04-18T23:36:48.524Z,100433.69
2023-04-18T23:39:51.130Z,100426.31
2023-04-18T23:42:54.081Z,100415.28
2023-04-18T23:45:56.974Z,100416.59
2023-04-18T23:49:00.640Z,100415.41
2023-04-18T23:52:03.786Z,100423.66
2023-04-18T23:55:07.237Z,100411.62
2023-04-18T23:58:09.786Z,100410.37
